createdAt,value
2017-10-14T00:01:21.930Z,100132.85
2017-10-14T00:03:49.372Z,100131.38
2017-10-14T00:06:16.787Z,100114.95
2017-10-14T00:08:44.347Z,100140.00
2017-10-14T00:11:11.735Z,100136.42
2017-10-14T00:13:39.169Z,100137.53
2017-10-14T00:16:06.580Z,100130.62
2017-10-14T00:18:34.035Z,100130.59
2017-10-14T00:21:01.464Z,100133.09
2017-10-14T00:23:28.903Z,100132.06
2017-10-14T00:25:56.327Z,100131.58
2017-10-14T00:28:23.730Z,100128.70
2017-10-14T00:30:51.165Z,100133.34
2017-10-14T00:33:18.600Z,100138.58
2017-10-14T00:35:46.039Z,100134.67
2017-10-14T00:38:13.441Z,100130.98
2017-10-14T00:40:41.011Z,100134.67
2017-10-14T00:43:08.461Z,100138.56
2017-10-14T00:45:35.887Z,100116.53
2017-10-14T00:48:03.323Z,100138.82
2017-10-14T00:50:30.743Z,100140.40
2017-10-14T00:52:58.144Z,100138.73
2017-10-14T00:55:25.575Z,100142.17
2017-10-14T00:57:52.976Z,100142.42
2017-10-14T01:00:20.413Z,100144.67
2017-10-14T01:02:47.820Z,100143.84
2017-10-14T01:05:15.255Z,100136.30
2017-10-14T01:07:42.655Z,100138.84
2017-10-14T01:10:10.091Z,100142.97
2017-10-14T01:12:37.578Z,100143.69
2017-10-14T01:15:05.025Z,100135.44
2017-10-14T01:17:32.462Z,100131.02
2017-10-14T01:19:59.876Z,100141.45
2017-10-14T01:22:27.322Z,100143.60
2017-10-14T01:24:54.761Z,100140.41
2017-10-14T01:27:22.190Z,100138.38
2017-10-14T01:29:49.604Z,100136.55
2017-10-14T01:32:17.053Z,100125.28
2017-10-14T01:34:44.477Z,100137.20
2017-10-14T01:37:11.875Z,100128.35
2017-10-14T01:39:39.315Z,100126.09
2017-10-14T01:42:06.725Z,100128.70
2017-10-14T01:44:34.155Z,100127.28
2017-10-14T01:47:01.564Z,100127.08
2017-10-14T01:49:29.090Z,100122.50
2017-10-14T01:51:56.483Z,100119.38
2017-10-14T01:54:23.940Z,100121.78
2017-10-14T01:56:51.383Z,100124.63
2017-10-14T01:59:18.787Z,100118.73
2017-10-14T02:01:46.209Z,100123.96
2017-10-14T02:04:14.357Z,100123.20
2017-10-14T02:06:41.779Z,100117.77
2017-10-14T02:09:09.176Z,100120.26
2017-10-14T02:11:36.612Z,100112.73
2017-10-14T02:14:04.011Z,100118.43
2017-10-14T02:16:31.432Z,100124.08
2017-10-14T02:18:58.827Z,100118.42
2017-10-14T02:21:26.263Z,100113.29
2017-10-14T02:23:53.695Z,100108.54
2017-10-14T02:26:21.094Z,100104.95
2017-10-14T02:28:48.526Z,100105.34
2017-10-14T02:31:15.915Z,100100.40
2017-10-14T02:33:43.347Z,100109.67
2017-10-14T02:36:10.747Z,100113.94
2017-10-14T02:38:38.180Z,100111.45
2017-10-14T02:41:05.598Z,100108.14
2017-10-14T02:43:33.053Z,100107.27
2017-10-14T02:46:00.462Z,100110.08
2017-10-14T02:48:27.903Z,100108.70
2017-10-14T02:50:55.325Z,100088.73
2017-10-14T02:53:22.763Z,100112.46
2017-10-14T02:55:50.204Z,100112.97
2017-10-14T02:58:17.622Z,100120.96
2017-10-14T03:00:45.036Z,100115.72
2017-10-14T03:03:12.445Z,100114.55
2017-10-14T03:05:39.919Z,100109.27
2017-10-14T03:08:07.313Z,100112.60
2017-10-14T03:10:34.765Z,100115.50
2017-10-14T03:13:02.185Z,100112.08
2017-10-14T03:15:29.586Z,100114.77
2017-10-14T03:17:57.024Z,100114.33
2017-10-14T03:20:24.465Z,100115.85
2017-10-14T03:22:51.872Z,100107.86
2017-10-14T03:25:19.337Z,100107.51
2017-10-14T03:27:46.771Z,100107.50
2017-10-14T03:30:14.175Z,100105.66
2017-10-14T03:32:41.581Z,100106.26
2017-10-14T03:35:09.034Z,100102.41
2017-10-14T03:37:36.435Z,100100.11
2017-10-14T03:40:03.853Z,100102.23
2017-10-14T03:42:31.276Z,100093.72
2017-10-14T03:44:58.699Z,100099.77
2017-10-14T03:47:26.115Z,100091.27
2017-10-14T03:49:53.556Z,100090.00
2017-10-14T03:52:20.941Z,100091.52
2017-10-14T03:54:48.407Z,100098.66
2017-10-14T03:57:15.795Z,100095.69
2017-10-14T03:59:43.225Z,100094.23
2017-10-14T04:02:10.664Z,100096.20
2017-10-14T04:04:38.097Z,100100.27
2017-10-14T04:07:05.529Z,100103.38
2017-10-14T04:09:32.916Z,100103.86
2017-10-14T04:12:00.351Z,100107.88
2017-10-14T04:14:27.760Z,100106.20
2017-10-14T04:16:55.203Z,100103.67
2017-10-14T04:19:22.596Z,100101.90
2017-10-14T04:21:50.512Z,100109.53
2017-10-14T04:24:17.895Z,100115.39
2017-10-14T04:26:45.323Z,100100.30
2017-10-14T04:29:12.743Z,100107.75
2017-10-14T04:31:40.184Z,100113.44
2017-10-14T04:34:07.616Z,100118.89
2017-10-14T04:36:35.154Z,100117.81
2017-10-14T04:39:02.596Z,100113.93
2017-10-14T04:41:29.998Z,100123.59
2017-10-14T04:43:57.435Z,100123.84
2017-10-14T04:46:24.981Z,100124.95
2017-10-14T04:48:52.431Z,100121.61
2017-10-14T04:51:19.841Z,100127.42
2017-10-14T04:53:47.301Z,100119.14
2017-10-14T04:56:14.728Z,100118.54
2017-10-14T04:58:42.197Z,100122.30
2017-10-14T05:01:09.637Z,100117.46
2017-10-14T05:03:37.078Z,100119.84
2017-10-14T05:06:04.533Z,100120.00
2017-10-14T05:08:31.985Z,100125.13
2017-10-14T05:10:59.381Z,100128.74
2017-10-14T05:13:26.807Z,100121.89
2017-10-14T05:15:54.256Z,100127.45
2017-10-14T05:18:21.691Z,100121.13
2017-10-14T05:20:49.095Z,100129.06
2017-10-14T05:23:16.519Z,100131.17
2017-10-14T05:25:43.934Z,100131.56
2017-10-14T05:28:11.364Z,100137.38
2017-10-14T05:30:38.786Z,100139.39
2017-10-14T05:33:06.203Z,100136.81
2017-10-14T05:35:33.616Z,100120.17
2017-10-14T05:38:01.065Z,100141.73
2017-10-14T05:40:28.771Z,100144.28
2017-10-14T05:42:56.189Z,100137.32
2017-10-14T05:45:23.637Z,100137.95
2017-10-14T05:47:51.061Z,100143.19
2017-10-14T05:50:18.496Z,100141.08
2017-10-14T05:52:45.900Z,100143.70
2017-10-14T05:55:13.357Z,100144.40
2017-10-14T05:57:40.744Z,100145.25
2017-10-14T06:00:08.174Z,100144.05
2017-10-14T06:02:35.575Z,100151.05
2017-10-14T06:05:03.012Z,100156.88
2017-10-14T06:07:30.455Z,100157.49
2017-10-14T06:09:57.896Z,100161.19
2017-10-14T06:12:25.308Z,100164.32
2017-10-14T06:14:52.707Z,100160.50
2017-10-14T06:17:20.164Z,100165.25
2017-10-14T06:19:47.556Z,100159.80
2017-10-14T06:22:14.994Z,100165.48
2017-10-14T06:24:42.390Z,100166.45
2017-10-14T06:27:09.812Z,100167.73
2017-10-14T06:29:37.256Z,100170.14
2017-10-14T06:32:04.696Z,100165.70
2017-10-14T06:34:32.078Z,100173.59
2017-10-14T06:36:59.532Z,100175.88
2017-10-14T06:39:26.944Z,100173.57
2017-10-14T06:41:54.347Z,100170.41
2017-10-14T06:44:21.802Z,100167.02
2017-10-14T06:46:49.198Z,100167.30
2017-10-14T06:49:16.671Z,100169.23
2017-10-14T06:51:44.064Z,100169.86
2017-10-14T06:54:11.519Z,100173.91
2017-10-14T06:56:38.923Z,100174.77
2017-10-14T06:59:06.349Z,100171.53
2017-10-14T07:01:33.754Z,100177.05
2017-10-14T07:04:01.202Z,100169.71
2017-10-14T07:06:28.632Z,100179.20
2017-10-14T07:08:56.048Z,100177.84
2017-10-14T07:11:23.504Z,100183.59
2017-10-14T07:13:50.917Z,100185.00
2017-10-14T07:16:18.480Z,100186.59
2017-10-14T07:18:45.871Z,100189.89
2017-10-14T07:21:13.314Z,100188.86
2017-10-14T07:23:40.707Z,100194.53
2017-10-14T07:26:08.143Z,100200.46
2017-10-14T07:28:36.347Z,100203.13
2017-10-14T07:31:03.775Z,100201.67
2017-10-14T07:33:31.239Z,100198.97
2017-10-14T07:35:58.663Z,100201.67
2017-10-14T07:38:26.095Z,100190.92
2017-10-14T07:40:53.499Z,100195.14
2017-10-14T07:43:20.969Z,100197.14
2017-10-14T07:45:48.373Z,100195.81
2017-10-14T07:48:15.796Z,100194.13
2017-10-14T07:50:43.230Z,100192.00
2017-10-14T07:53:10.690Z,100194.17
2017-10-14T07:55:38.088Z,100194.75
2017-10-14T07:58:05.619Z,100190.36
2017-10-14T08:00:33.058Z,100184.05
2017-10-14T08:03:00.514Z,100192.77
2017-10-14T08:05:27.961Z,100188.55
2017-10-14T08:07:55.385Z,100188.16
2017-10-14T08:10:22.823Z,100189.85
2017-10-14T08:12:50.300Z,100183.33
2017-10-14T08:15:17.769Z,100186.35
2017-10-14T08:17:45.172Z,100177.45
2017-10-14T08:20:12.655Z,100176.75
2017-10-14T08:22:40.310Z,100160.48
2017-10-14T08:25:07.861Z,100183.73
2017-10-14T08:27:35.383Z,100179.83
2017-10-14T08:30:02.855Z,100173.38
2017-10-14T08:32:30.337Z,100167.87
2017-10-14T08:34:57.802Z,100180.91
2017-10-14T08:37:25.251Z,100184.17
2017-10-14T08:39:52.635Z,100185.71
2017-10-14T08:42:20.067Z,100185.09
2017-10-14T08:44:47.474Z,100179.16
2017-10-14T08:47:14.895Z,100182.72
2017-10-14T08:49:42.338Z,100190.43
2017-10-14T08:52:09.983Z,100190.47
2017-10-14T08:54:37.383Z,100188.66
2017-10-14T08:57:04.815Z,100189.09
2017-10-14T08:59:32.237Z,100193.13
2017-10-14T09:01:59.694Z,100194.64
2017-10-14T09:04:27.153Z,100193.33
2017-10-14T09:06:54.663Z,100189.59
2017-10-14T09:09:22.148Z,100188.45
2017-10-14T09:11:49.656Z,100187.42
2017-10-14T09:14:17.071Z,100183.95
2017-10-14T09:16:44.497Z,100184.55
2017-10-14T09:19:11.952Z,100182.81
2017-10-14T09:21:39.335Z,100183.37
2017-10-14T09:24:07.116Z,100174.04
2017-10-14T09:26:34.610Z,100177.50
2017-10-14T09:29:02.008Z,100176.42
2017-10-14T09:31:29.444Z,100187.19
2017-10-14T09:33:56.842Z,100186.91
2017-10-14T09:36:24.276Z,100174.78
2017-10-14T09:38:51.734Z,100183.03
2017-10-14T09:41:19.159Z,100188.48
2017-10-14T09:43:46.588Z,100188.84
2017-10-14T09:46:14.023Z,100183.62
2017-10-14T09:48:41.547Z,100188.53
2017-10-14T09:51:08.986Z,100175.83
2017-10-14T09:53:36.444Z,100177.38
2017-10-14T09:56:03.951Z,100190.91
2017-10-14T09:58:31.468Z,100175.03
2017-10-14T10:00:58.866Z,100182.44
2017-10-14T10:03:26.393Z,100183.18
2017-10-14T10:05:53.799Z,100182.20
2017-10-14T10:08:21.231Z,100170.84
2017-10-14T10:10:48.717Z,100182.08
2017-10-14T10:13:16.147Z,100187.52
2017-10-14T10:15:43.544Z,100187.30
2017-10-14T10:18:10.986Z,100182.34
2017-10-14T10:20:38.396Z,100175.03
2017-10-14T10:23:05.834Z,100170.91
2017-10-14T10:25:33.243Z,100162.77
2017-10-14T10:28:00.712Z,100169.22
2017-10-14T10:30:28.202Z,100169.10
2017-10-14T10:32:55.618Z,100162.11
2017-10-14T10:35:23.039Z,100152.59
2017-10-14T10:37:50.453Z,100151.74
2017-10-14T10:40:17.872Z,100153.25
2017-10-14T10:42:45.935Z,100153.28
2017-10-14T10:45:13.373Z,100144.17
2017-10-14T10:47:40.792Z,100147.77
2017-10-14T10:50:08.241Z,100148.45
2017-10-14T10:52:35.681Z,100141.92
2017-10-14T10:55:03.088Z,100139.77
2017-10-14T10:57:31.502Z,100143.93
2017-10-14T10:59:58.890Z,100133.25
2017-10-14T11:02:26.303Z,100127.77
2017-10-14T11:04:53.975Z,100131.39
2017-10-14T11:07:21.398Z,100131.22
2017-10-14T11:09:48.827Z,100115.80
2017-10-14T11:12:16.265Z,100120.97
2017-10-14T11:14:43.734Z,100115.47
2017-10-14T11:17:11.143Z,100094.45
2017-10-14T11:19:38.606Z,100100.37
2017-10-14T11:22:06.010Z,100105.98
2017-10-14T11:24:35.149Z,100092.11
2017-10-14T11:27:02.587Z,100099.11
2017-10-14T11:29:30.004Z,100094.02
2017-10-14T11:31:57.440Z,100086.81
2017-10-14T11:34:24.855Z,100081.18
2017-10-14T11:36:52.366Z,100079.93
2017-10-14T11:39:19.812Z,100071.47
2017-10-14T11:41:47.420Z,100074.55
2017-10-14T11:44:14.820Z,100077.52
2017-10-14T11:46:42.254Z,100068.41
2017-10-14T11:49:09.699Z,100067.45
2017-10-14T11:51:37.132Z,100060.62
2017-10-14T11:54:04.569Z,100059.03
2017-10-14T11:56:31.959Z,100056.78
2017-10-14T11:58:59.423Z,100059.05
2017-10-14T12:01:26.812Z,100046.46
2017-10-14T12:03:54.256Z,100042.00
2017-10-14T12:06:21.737Z,100050.81
2017-10-14T12:08:49.148Z,100043.28
2017-10-14T12:11:16.586Z,100044.81
2017-10-14T12:13:43.978Z,100042.64
2017-10-14T12:16:11.419Z,100042.00
2017-10-14T12:18:38.807Z,100038.09
2017-10-14T12:21:06.232Z,100034.91
2017-10-14T12:23:33.661Z,100030.03
2017-10-14T12:26:01.399Z,100026.50
2017-10-14T12:28:28.797Z,100031.28
2017-10-14T12:30:56.194Z,100025.77
2017-10-14T12:33:23.621Z,100032.22
2017-10-14T12:35:51.011Z,100032.31
2017-10-14T12:38:18.443Z,100034.70
2017-10-14T12:40:45.847Z,100042.09
2017-10-14T12:43:13.331Z,100039.80
2017-10-14T12:45:40.736Z,100030.03
2017-10-14T12:48:08.151Z,100026.46
2017-10-14T12:50:35.552Z,100023.70
2017-10-14T12:53:02.984Z,100026.73
2017-10-14T12:55:30.866Z,100024.17
2017-10-14T12:57:58.302Z,100025.81
2017-10-14T13:00:25.778Z,100016.67
2017-10-14T13:02:53.175Z,100019.56
2017-10-14T13:05:20.883Z,100015.00
2017-10-14T13:07:48.300Z,100002.15
2017-10-14T13:10:15.889Z,100004.92
2017-10-14T13:12:43.289Z,100005.80
2017-10-14T13:15:10.730Z,99996.87
2017-10-14T13:17:38.180Z,99997.17
2017-10-14T13:20:05.623Z,99989.38
2017-10-14T13:22:33.028Z,99992.70
2017-10-14T13:25:00.491Z,99996.97
2017-10-14T13:27:27.907Z,99991.73
2017-10-14T13:29:55.320Z,99993.30
2017-10-14T13:32:23.139Z,99995.25
2017-10-14T13:34:50.597Z,99988.02
2017-10-14T13:37:18.033Z,99985.91
2017-10-14T13:39:45.482Z,99985.10
2017-10-14T13:42:12.880Z,99985.59
2017-10-14T13:44:40.336Z,99987.84
2017-10-14T13:47:07.757Z,99983.30
2017-10-14T13:49:35.176Z,99972.77
2017-10-14T13:52:02.584Z,99970.39
2017-10-14T13:54:30.004Z,99977.25
2017-10-14T13:56:57.428Z,99976.05
2017-10-14T13:59:24.831Z,99975.88
2017-10-14T14:01:52.252Z,99966.12
2017-10-14T14:04:19.644Z,99973.98
2017-10-14T14:06:47.408Z,99973.86
2017-10-14T14:09:14.815Z,99970.53
2017-10-14T14:11:42.259Z,99967.95
2017-10-14T14:14:09.685Z,99963.22
2017-10-14T14:16:37.129Z,99958.59
2017-10-14T14:19:04.587Z,99957.96
2017-10-14T14:21:32.084Z,99956.25
2017-10-14T14:23:59.529Z,99960.41
2017-10-14T14:26:26.940Z,99956.81
2017-10-14T14:28:54.375Z,99962.94
2017-10-14T14:31:21.777Z,99953.94
2017-10-14T14:33:49.214Z,99953.80
2017-10-14T14:36:16.608Z,99954.40
2017-10-14T14:38:44.022Z,99953.36
2017-10-14T14:41:11.456Z,99954.83
2017-10-14T14:43:38.903Z,99950.33
2017-10-14T14:46:06.347Z,99949.80
2017-10-14T14:48:33.748Z,99951.86
2017-10-14T14:51:01.175Z,99950.06
2017-10-14T14:53:28.583Z,99947.37
2017-10-14T14:55:55.990Z,99948.02
2017-10-14T14:58:23.399Z,99943.25
2017-10-14T15:00:50.831Z,99953.32
2017-10-14T15:03:18.272Z,99947.25
2017-10-14T15:05:45.696Z,99942.64
2017-10-14T15:08:13.119Z,99943.37
2017-10-14T15:10:40.540Z,99949.56
2017-10-14T15:13:07.943Z,99948.14
2017-10-14T15:15:35.361Z,99951.31
2017-10-14T15:18:02.763Z,99920.11
2017-10-14T15:20:30.192Z,99962.64
2017-10-14T15:22:57.600Z,99968.25
2017-10-14T15:25:25.011Z,99960.34
2017-10-14T15:27:52.424Z,99972.42
2017-10-14T15:30:19.875Z,99950.34
2017-10-14T15:32:47.259Z,99965.34
2017-10-14T15:35:14.709Z,99963.86
2017-10-14T15:37:42.136Z,99963.37
2017-10-14T15:40:09.540Z,99966.33
2017-10-14T15:42:36.982Z,99957.70
2017-10-14T15:45:05.274Z,99953.94
2017-10-14T15:47:32.683Z,99952.64
2017-10-14T15:50:00.085Z,99959.78
2017-10-14T15:52:27.532Z,99959.61
2017-10-14T15:54:54.961Z,99965.00
2017-10-14T15:57:22.422Z,99961.89
2017-10-14T15:59:49.838Z,99967.05
2017-10-14T16:02:17.433Z,99970.34
2017-10-14T16:04:45.913Z,99966.51
2017-10-14T16:07:13.300Z,99967.62
2017-10-14T16:09:40.751Z,99970.67
2017-10-14T16:12:08.131Z,99969.13
2017-10-14T16:14:35.560Z,99969.50
2017-10-14T16:17:03.000Z,99950.68
2017-10-14T16:19:30.416Z,99962.09
2017-10-14T16:21:57.812Z,99969.88
2017-10-14T16:24:25.235Z,99968.97
2017-10-14T16:26:52.636Z,99971.47
2017-10-14T16:29:20.097Z,99970.03
2017-10-14T16:31:47.483Z,99967.80
2017-10-14T16:34:15.355Z,99975.44
2017-10-14T16:36:43.412Z,99974.29
2017-10-14T16:39:10.795Z,99978.34
2017-10-14T16:41:38.223Z,99977.53
2017-10-14T16:44:05.619Z,99978.98
2017-10-14T16:46:33.049Z,99970.50
2017-10-14T16:49:01.590Z,99983.40
2017-10-14T16:51:29.055Z,99982.48
2017-10-14T16:53:56.464Z,99985.80
2017-10-14T16:56:23.863Z,99987.91
2017-10-14T16:58:51.291Z,99992.03
2017-10-14T17:01:18.680Z,99996.81
2017-10-14T17:03:46.151Z,99998.39
2017-10-14T17:06:13.556Z,99992.66
2017-10-14T17:08:40.972Z,99990.62
2017-10-14T17:11:08.424Z,100001.08
2017-10-14T17:13:35.913Z,99999.88
2017-10-14T17:16:03.332Z,99998.88
2017-10-14T17:18:30.731Z,99995.68
2017-10-14T17:20:58.149Z,99993.92
2017-10-14T17:23:25.550Z,99997.41
2017-10-14T17:25:52.983Z,100004.06
2017-10-14T17:28:20.438Z,100005.06
2017-10-14T17:30:47.888Z,100002.09
2017-10-14T17:33:15.309Z,100020.45
2017-10-14T17:35:42.751Z,100016.66
2017-10-14T17:38:10.196Z,100027.55
2017-10-14T17:40:37.632Z,100028.55
2017-10-14T17:43:05.085Z,100023.92
2017-10-14T17:48:06.251Z,100020.64
2017-10-14T17:50:33.656Z,100025.74
2017-10-14T17:53:01.130Z,100024.33
2017-10-14T17:55:28.567Z,100027.94
2017-10-14T17:57:56.041Z,100025.26
2017-10-14T18:00:23.437Z,100008.33
2017-10-14T18:02:50.881Z,100021.84
2017-10-14T18:05:18.309Z,100028.34
2017-10-14T18:07:45.768Z,100030.97
2017-10-14T18:10:13.199Z,100036.98
2017-10-14T18:12:40.640Z,100028.04
2017-10-14T18:15:08.083Z,100026.47
2017-10-14T18:17:35.632Z,100033.21
2017-10-14T18:20:03.170Z,100029.28
2017-10-14T18:22:30.608Z,100027.13
2017-10-14T18:24:58.123Z,100028.52
2017-10-14T18:27:25.564Z,100029.73
2017-10-14T18:29:52.968Z,100030.72
2017-10-14T18:32:20.395Z,100026.05
2017-10-14T18:34:47.824Z,100031.90
2017-10-14T18:37:15.257Z,100027.20
2017-10-14T18:39:42.688Z,100026.75
2017-10-14T18:42:10.091Z,100036.52
2017-10-14T18:44:37.536Z,100031.11
2017-10-14T18:47:04.961Z,100036.26
2017-10-14T18:49:32.396Z,100036.45
2017-10-14T18:51:59.870Z,100050.20
2017-10-14T18:54:27.392Z,100042.20
2017-10-14T18:56:58.527Z,100045.40
2017-10-14T18:59:25.999Z,100039.92
2017-10-14T19:01:53.392Z,100044.22
2017-10-14T19:04:20.838Z,100038.28
2017-10-14T19:06:48.243Z,100048.88
2017-10-14T19:09:15.777Z,100040.77
2017-10-14T19:11:43.202Z,100044.10
2017-10-14T19:14:10.595Z,100047.59
2017-10-14T19:16:38.032Z,100048.33
2017-10-14T19:19:05.439Z,100046.36
2017-10-14T19:21:32.892Z,100049.96
2017-10-14T19:24:00.291Z,100054.61
2017-10-14T19:26:27.766Z,100049.69
2017-10-14T19:28:55.208Z,100056.11
2017-10-14T19:31:22.652Z,100057.48
2017-10-14T19:33:50.053Z,100058.02
2017-10-14T19:36:17.447Z,100056.31
2017-10-14T19:38:45.769Z,100058.17
2017-10-14T19:41:13.208Z,100055.14
2017-10-14T19:43:40.776Z,100054.48
2017-10-14T19:46:08.183Z,100060.47
2017-10-14T19:48:35.615Z,100061.95
2017-10-14T19:51:03.017Z,100062.89
2017-10-14T19:53:30.467Z,100060.19
2017-10-14T19:55:57.880Z,100059.54
2017-10-14T19:58:25.716Z,100057.80
2017-10-14T20:00:53.118Z,100061.52
2017-10-14T20:03:20.551Z,100060.59
2017-10-14T20:05:48.066Z,100069.42
2017-10-14T20:08:15.463Z,100065.02
2017-10-14T20:10:42.897Z,100059.69
2017-10-14T20:13:10.296Z,100061.55
2017-10-14T20:15:37.761Z,100056.23
2017-10-14T20:18:05.188Z,100057.70
2017-10-14T20:20:32.613Z,100040.48
2017-10-14T20:23:00.029Z,100060.08
2017-10-14T20:25:27.450Z,100061.92
2017-10-14T20:27:54.951Z,100062.08
2017-10-14T20:30:22.347Z,100065.25
2017-10-14T20:32:49.779Z,100049.26
2017-10-14T20:35:17.183Z,100069.52
2017-10-14T20:37:44.615Z,100077.87
2017-10-14T20:40:12.024Z,100080.95
2017-10-14T20:42:39.804Z,100072.29
2017-10-14T20:45:07.192Z,100073.72
2017-10-14T20:47:34.677Z,100078.00
2017-10-14T20:50:02.095Z,100080.66
2017-10-14T20:52:29.552Z,100074.50
2017-10-14T20:54:56.985Z,100085.05
2017-10-14T20:57:24.403Z,100078.80
2017-10-14T20:59:51.824Z,100070.12
2017-10-14T21:02:25.691Z,100072.50
2017-10-14T21:04:54.926Z,100070.64
2017-10-14T21:07:24.964Z,100067.72
2017-10-14T21:09:52.431Z,100072.08
2017-10-14T21:12:19.840Z,100071.02
2017-10-14T21:14:47.244Z,100072.50
2017-10-14T21:17:14.804Z,100071.01
2017-10-14T21:19:42.213Z,100067.01
2017-10-14T21:22:09.647Z,100067.22
2017-10-14T21:24:37.043Z,100062.22
2017-10-14T21:27:15.692Z,99980.23
2017-10-14T21:29:43.201Z,100070.89
2017-10-14T21:32:10.635Z,100067.44
2017-10-14T21:34:39.321Z,100070.48
2017-10-14T21:37:06.817Z,100070.48
2017-10-14T21:39:34.224Z,100053.56
2017-10-14T21:42:01.650Z,100061.95
2017-10-14T21:44:29.131Z,100060.06
2017-10-14T21:46:56.548Z,100060.98
2017-10-14T21:49:23.964Z,100069.98
2017-10-14T21:51:51.371Z,100062.95
2017-10-14T21:54:18.792Z,100036.76
2017-10-14T21:56:46.746Z,100064.67
2017-10-14T21:59:14.192Z,100060.30
2017-10-14T22:01:42.487Z,100063.99
2017-10-14T22:04:10.035Z,100059.77
2017-10-14T22:06:37.429Z,100056.82
2017-10-14T22:09:04.892Z,100065.72
2017-10-14T22:11:32.564Z,100058.69
2017-10-14T22:14:00.391Z,100061.17
2017-10-14T22:16:27.879Z,100058.20
2017-10-14T22:18:55.314Z,100024.86
2017-10-14T22:21:22.747Z,100053.02
2017-10-14T22:23:51.096Z,100057.81
2017-10-14T22:26:18.543Z,100059.93
2017-10-14T22:28:46.089Z,100058.88
2017-10-14T22:31:13.629Z,100065.02
2017-10-14T22:33:41.032Z,100069.41
2017-10-14T22:36:08.475Z,100056.17
2017-10-14T22:38:35.904Z,100062.39
2017-10-14T22:41:03.306Z,100062.89
2017-10-14T22:43:30.734Z,100060.95
2017-10-14T22:45:58.636Z,100059.52
2017-10-14T22:48:26.072Z,100055.82
2017-10-14T22:50:54.561Z,100054.06
2017-10-14T22:53:22.028Z,100054.93
2017-10-14T22:55:49.472Z,100058.25
2017-10-14T22:58:16.876Z,100052.86
2017-10-14T23:00:44.298Z,100054.42
2017-10-14T23:03:11.699Z,100051.30
2017-10-14T23:05:39.131Z,100050.55
2017-10-14T23:08:07.336Z,100048.55
2017-10-14T23:10:34.773Z,100049.63
2017-10-14T23:13:02.972Z,100046.59
2017-10-14T23:15:30.404Z,100048.44
2017-10-14T23:17:57.823Z,100046.02
2017-10-14T23:20:25.233Z,100049.74
2017-10-14T23:22:52.652Z,100045.80
2017-10-14T23:25:20.105Z,100025.23
2017-10-14T23:27:47.528Z,100044.36
2017-10-14T23:30:15.268Z,100038.61
2017-10-14T23:32:42.705Z,100036.95
2017-10-14T23:35:10.125Z,100039.63
2017-10-14T23:37:37.640Z,100048.70
2017-10-14T23:40:05.269Z,100041.41
2017-10-14T23:42:32.734Z,100042.88
2017-10-14T23:45:00.124Z,100034.55
2017-10-14T23:47:27.547Z,100038.50
2017-10-14T23:49:54.964Z,100038.41
2017-10-14T23:52:22.440Z,100037.53
2017-10-14T23:54:50.216Z,100035.08
2017-10-14T23:57:17.683Z,100034.16
2017-10-14T23:59:45.128Z,100037.36
